createdAt,value
2023-12-11T00:01:33.661Z,22.50
2023-12-11T00:04:37.106Z,21.73
2023-12-11T00:07:39.787Z,23.33
2023-12-11T00:10:43.018Z,21.80
2023-12-11T00:13:45.695Z,24.37
2023-12-11T00:16:48.994Z,23.42
2023-12-11T00:19:51.805Z,24.75
2023-12-11T00:25:58.042Z,26.10
2023-12-11T00:29:01.223Z,27.42
2023-12-11T00:32:04.769Z,27.67
2023-12-11T00:35:08.183Z,27.23
2023-12-11T00:38:10.828Z,26.50
2023-12-11T00:41:14.122Z,26.33
2023-12-11T00:44:16.908Z,23.35
2023-12-11T00:47:20.140Z,24.15
2023-12-11T00:50:22.802Z,23.77
2023-12-11T00:53:26.046Z,23.40
2023-12-11T00:56:29.447Z,23.67
2023-12-11T00:59:32.695Z,21.90
2023-12-11T01:02:35.370Z,23.13
2023-12-11T01:05:38.513Z,25.35
2023-12-11T01:08:41.433Z,22.77
2023-12-11T01:11:44.744Z,24.52
2023-12-11T01:14:47.384Z,24.93
2023-12-11T01:17:50.930Z,25.33
2023-12-11T01:20:53.809Z,23.87
2023-12-11T01:23:58.183Z,23.75
2023-12-11T01:27:00.916Z,25.33
2023-12-11T01:30:04.466Z,26.92
2023-12-11T01:33:07.144Z,26.58
2023-12-11T01:36:10.532Z,27.95
2023-12-11T01:39:13.133Z,26.55
2023-12-11T01:42:16.609Z,27.55
2023-12-11T01:45:19.289Z,28.38
2023-12-11T01:48:23.376Z,26.27
2023-12-11T01:51:26.464Z,25.08
2023-12-11T01:54:30.530Z,26.30
2023-12-11T02:00:36.727Z,26.05
2023-12-11T02:03:40.145Z,25.27
2023-12-11T02:06:43.432Z,24.95
2023-12-11T02:09:46.057Z,24.80
2023-12-11T02:12:49.520Z,26.12
2023-12-11T02:15:52.489Z,24.55
2023-12-11T02:21:58.620Z,24.52
2023-12-11T02:25:05.331Z,23.23
2023-12-11T02:28:08.257Z,22.75
2023-12-11T02:31:12.180Z,22.52
2023-12-11T02:34:14.901Z,23.30
2023-12-11T02:37:18.217Z,23.05
2023-12-11T02:40:20.851Z,22.23
2023-12-11T02:43:24.138Z,23.45
2023-12-11T02:46:26.921Z,23.35
2023-12-11T02:49:30.446Z,23.12
2023-12-11T02:52:33.132Z,21.58
2023-12-11T02:55:36.396Z,22.98
2023-12-11T02:58:39.153Z,20.48
2023-12-11T03:01:42.513Z,22.65
2023-12-11T03:04:45.351Z,20.98
2023-12-11T03:07:48.919Z,21.95
2023-12-11T03:10:51.560Z,20.65
2023-12-11T03:13:54.701Z,21.60
2023-12-11T03:16:57.241Z,22.10
2023-12-11T03:20:00.896Z,20.98
2023-12-11T03:23:03.601Z,22.13
2023-12-11T03:26:06.823Z,21.55
2023-12-11T03:29:09.478Z,22.53
2023-12-11T03:32:12.947Z,21.00
2023-12-11T03:35:15.658Z,21.30
2023-12-11T03:38:18.859Z,29.65
2023-12-11T03:41:21.428Z,22.27
2023-12-11T03:44:25.296Z,23.05
2023-12-11T03:47:28.144Z,22.50
2023-12-11T03:50:31.549Z,22.58
2023-12-11T03:53:34.157Z,22.30
2023-12-11T03:56:37.612Z,23.05
2023-12-11T03:59:40.208Z,22.17
2023-12-11T04:02:43.900Z,23.20
2023-12-11T04:08:50.512Z,21.67
2023-12-11T04:11:53.479Z,23.85
2023-12-11T04:14:56.310Z,22.10
2023-12-11T04:17:59.184Z,23.52
2023-12-11T04:21:02.391Z,23.33
2023-12-11T04:24:05.891Z,22.98
2023-12-11T04:30:11.929Z,22.87
2023-12-11T04:33:14.886Z,22.40
2023-12-11T04:36:17.889Z,21.98
2023-12-11T04:39:20.757Z,23.95
2023-12-11T04:42:23.801Z,23.80
2023-12-11T04:45:26.747Z,23.58
2023-12-11T04:48:29.737Z,23.80
2023-12-11T04:51:32.688Z,24.02
2023-12-11T04:54:35.940Z,23.67
2023-12-11T04:57:39.009Z,23.62
2023-12-11T05:00:42.087Z,24.87
2023-12-11T05:03:45.544Z,23.50
2023-12-11T05:09:51.241Z,22.62
2023-12-11T05:12:54.205Z,24.33
2023-12-11T05:15:57.139Z,24.05
2023-12-11T05:19:00.165Z,23.27
2023-12-11T05:22:04.006Z,24.83
2023-12-11T05:25:07.689Z,23.60
2023-12-11T05:28:10.627Z,25.58
2023-12-11T05:31:13.655Z,24.35
2023-12-11T05:34:16.655Z,24.40
2023-12-11T05:37:19.696Z,22.90
2023-12-11T05:40:24.061Z,23.58
2023-12-11T05:43:27.281Z,24.52
2023-12-11T05:46:30.256Z,24.17
2023-12-11T05:49:33.211Z,23.87
2023-12-11T05:52:36.310Z,22.30
2023-12-11T05:55:39.202Z,23.52
2023-12-11T05:58:42.164Z,23.12
2023-12-11T06:01:45.336Z,22.90
2023-12-11T06:04:48.538Z,22.27
2023-12-11T06:07:51.136Z,21.50
2023-12-11T06:10:54.836Z,22.48
2023-12-11T06:13:57.436Z,21.35
2023-12-11T06:17:01.141Z,22.30
2023-12-11T06:20:05.514Z,20.80
2023-12-11T06:23:08.705Z,23.33
2023-12-11T06:26:11.841Z,23.77
2023-12-11T06:32:17.424Z,25.35
2023-12-11T06:35:20.604Z,24.27
2023-12-11T06:38:23.203Z,22.43
2023-12-11T06:41:26.508Z,23.58
2023-12-11T06:44:29.173Z,22.55
2023-12-11T06:50:36.653Z,20.55
2023-12-11T06:53:39.827Z,21.10
2023-12-11T06:56:42.822Z,21.30
2023-12-11T06:59:46.116Z,21.10
2023-12-11T07:02:48.783Z,19.13
2023-12-11T07:05:52.048Z,19.83
2023-12-11T07:08:54.735Z,21.17
2023-12-11T07:11:58.006Z,19.60
2023-12-11T07:15:01.633Z,21.92
2023-12-11T07:18:04.978Z,21.02
2023-12-11T07:21:10.980Z,19.37
2023-12-11T07:24:14.372Z,18.50
2023-12-11T07:27:17.128Z,18.20
2023-12-11T07:30:20.733Z,19.90
2023-12-11T07:33:23.550Z,18.73
2023-12-11T07:39:31.458Z,17.52
2023-12-11T07:42:34.706Z,18.12
2023-12-11T07:45:37.325Z,19.85
2023-12-11T07:48:41.353Z,19.00
2023-12-11T07:51:44.573Z,20.35
2023-12-11T07:57:50.359Z,18.83
2023-12-11T08:00:53.917Z,18.60
2023-12-11T08:03:56.994Z,18.75
2023-12-11T08:07:00.017Z,21.37
2023-12-11T08:10:05.735Z,20.23
2023-12-11T08:13:08.823Z,20.20
2023-12-11T08:16:13.725Z,21.40
2023-12-11T08:19:16.674Z,20.25
2023-12-11T08:22:19.661Z,21.70
2023-12-11T08:25:23.201Z,21.40
2023-12-11T08:28:26.225Z,21.10
2023-12-11T08:31:29.273Z,19.25
2023-12-11T08:34:32.512Z,19.85
2023-12-11T08:37:36.240Z,20.15
2023-12-11T08:40:39.330Z,20.23
2023-12-11T08:43:42.308Z,19.02
2023-12-11T08:46:45.689Z,19.80
2023-12-11T08:49:48.705Z,21.85
2023-12-11T08:52:51.676Z,17.87
2023-12-11T08:55:55.656Z,18.17
2023-12-11T08:58:58.684Z,18.80
2023-12-11T09:02:01.630Z,18.58
2023-12-11T09:05:05.090Z,20.27
2023-12-11T09:11:10.954Z,18.87
2023-12-11T09:14:13.849Z,19.85
2023-12-11T09:17:16.748Z,20.37
2023-12-11T09:20:19.737Z,19.98
2023-12-11T09:23:22.797Z,20.77
2023-12-11T09:26:26.015Z,21.60
2023-12-11T09:29:28.893Z,22.48
2023-12-11T09:32:31.847Z,21.80
2023-12-11T09:35:34.898Z,23.60
2023-12-11T09:38:38.526Z,22.73
2023-12-11T09:41:44.098Z,22.77
2023-12-11T09:44:48.808Z,23.02
2023-12-11T09:48:04.787Z,21.90
2023-12-11T09:51:16.498Z,22.10
2023-12-11T09:54:19.469Z,22.98
2023-12-11T09:57:22.911Z,24.17
2023-12-11T10:00:26.203Z,22.52
2023-12-11T10:03:29.989Z,23.67
2023-12-11T10:09:35.780Z,25.42
2023-12-11T10:21:18.087Z,24.52
2023-12-11T10:24:21.261Z,27.08
2023-12-11T10:27:28.339Z,27.48
2023-12-11T10:30:31.718Z,27.08
2023-12-11T10:33:35.027Z,28.27
2023-12-11T10:36:49.423Z,26.92
2023-12-11T10:43:01.701Z,27.27
2023-12-11T10:46:04.622Z,27.60
2023-12-11T10:49:08.496Z,28.62
2023-12-11T10:52:12.136Z,28.33
2023-12-11T10:55:16.064Z,28.08
2023-12-11T10:58:19.031Z,28.23
2023-12-11T11:01:22.678Z,27.20
2023-12-11T11:04:27.393Z,27.80
2023-12-11T11:07:36.470Z,28.23
2023-12-11T11:10:48.844Z,28.08
2023-12-11T11:14:25.213Z,28.23
2023-12-11T11:18:03.814Z,28.77
2023-12-11T11:21:14.173Z,28.05
2023-12-11T11:24:30.146Z,27.30
2023-12-11T11:27:44.116Z,28.65
2023-12-11T11:30:52.843Z,27.17
2023-12-11T11:33:58.467Z,27.58
2023-12-11T11:37:01.843Z,27.13
2023-12-11T11:43:10.362Z,23.42
2023-12-11T11:46:13.589Z,24.17
2023-12-11T11:49:33.666Z,22.67
2023-12-11T11:52:40.134Z,21.90
2023-12-11T11:55:43.269Z,17.62
2023-12-11T11:58:47.027Z,18.67
2023-12-11T12:01:54.312Z,19.98
2023-12-11T12:05:09.841Z,19.33
2023-12-11T12:08:13.871Z,18.23
2023-12-11T12:11:17.103Z,19.33
2023-12-11T12:14:22.607Z,19.52
2023-12-11T12:17:26.082Z,18.48
2023-12-11T12:20:28.963Z,19.30
2023-12-11T12:23:33.050Z,19.70
2023-12-11T12:26:37.078Z,18.33
2023-12-11T12:29:41.816Z,18.65
2023-12-11T12:32:45.049Z,17.75
2023-12-11T12:35:50.071Z,18.50
2023-12-11T12:38:52.858Z,15.98
2023-12-11T12:41:57.664Z,16.45
2023-12-11T12:45:00.816Z,16.77
2023-12-11T12:48:05.905Z,16.90
2023-12-11T12:51:10.803Z,17.33
2023-12-11T12:54:15.887Z,18.00
2023-12-11T12:57:18.693Z,18.60
2023-12-11T13:00:21.838Z,18.92
2023-12-11T13:03:25.493Z,18.92
2023-12-11T13:06:28.926Z,20.05
2023-12-11T13:09:33.258Z,20.23
2023-12-11T13:12:36.538Z,21.37
2023-12-11T13:15:40.544Z,21.00
2023-12-11T13:18:43.973Z,21.48
2023-12-11T13:21:46.885Z,21.42
2023-12-11T13:24:50.039Z,21.00
2023-12-11T13:27:52.667Z,22.15
2023-12-11T13:33:58.454Z,23.42
2023-12-11T13:40:08.341Z,22.70
2023-12-11T13:43:12.867Z,22.23
2023-12-11T13:46:15.893Z,23.15
2023-12-11T13:49:19.232Z,23.55
2023-12-11T13:52:22.332Z,23.27
2023-12-11T13:55:25.604Z,22.58
2023-12-11T13:58:28.807Z,24.12
2023-12-11T14:01:32.054Z,25.92
2023-12-11T14:04:34.983Z,30.25
2023-12-11T14:07:38.010Z,33.47
2023-12-11T14:10:41.028Z,33.17
2023-12-11T14:13:43.946Z,34.13
2023-12-11T14:16:46.838Z,33.92
2023-12-11T14:19:50.168Z,33.58
2023-12-11T14:22:53.280Z,35.40
2023-12-11T14:25:58.210Z,34.35
2023-12-11T14:29:01.125Z,32.53
2023-12-11T14:32:04.186Z,31.90
2023-12-11T14:35:07.605Z,29.80
2023-12-11T14:38:10.569Z,29.73
2023-12-11T14:41:14.183Z,31.77
2023-12-11T14:44:19.224Z,32.30
2023-12-11T14:47:23.245Z,31.52
2023-12-11T14:50:26.128Z,30.17
2023-12-11T14:53:29.698Z,32.10
2023-12-11T14:56:32.648Z,33.20
2023-12-11T14:59:36.207Z,33.47
2023-12-11T15:02:39.427Z,33.92
2023-12-11T15:05:42.437Z,33.65
2023-12-11T15:08:45.519Z,31.20
2023-12-11T15:11:48.498Z,31.42
2023-12-11T15:14:51.609Z,32.33
2023-12-11T15:17:54.603Z,34.05
2023-12-11T15:20:57.639Z,30.98
2023-12-11T15:24:00.589Z,32.40
2023-12-11T15:27:05.090Z,30.15
2023-12-11T15:30:09.385Z,32.33
2023-12-11T15:33:12.462Z,31.92
2023-12-11T15:36:19.655Z,30.90
2023-12-11T15:39:24.898Z,32.33
2023-12-11T15:42:27.838Z,32.63
2023-12-11T15:45:30.713Z,32.70
2023-12-11T15:48:33.922Z,33.95
2023-12-11T15:51:36.875Z,31.80
2023-12-11T15:54:44.150Z,31.10
2023-12-11T15:57:47.073Z,32.53
2023-12-11T16:00:50.109Z,32.00
2023-12-11T16:03:53.578Z,31.75
2023-12-11T16:06:56.353Z,30.37
2023-12-11T16:09:59.525Z,31.15
2023-12-11T16:13:02.381Z,31.50
2023-12-11T16:16:10.148Z,30.98
2023-12-11T16:19:13.803Z,29.70
2023-12-11T16:22:17.738Z,30.17
2023-12-11T16:25:20.323Z,31.30
2023-12-11T16:28:23.623Z,29.37
2023-12-11T16:31:26.384Z,30.75
2023-12-11T16:34:32.702Z,30.15
2023-12-11T16:37:35.520Z,31.40
2023-12-11T16:40:40.945Z,31.02
2023-12-11T16:43:48.711Z,31.90
2023-12-11T16:46:51.863Z,32.50
2023-12-11T16:50:02.070Z,31.63
2023-12-11T16:53:09.974Z,33.10
2023-12-11T16:56:13.887Z,33.95
2023-12-11T16:59:17.636Z,31.60
2023-12-11T17:02:20.299Z,31.08
2023-12-11T17:05:23.701Z,32.35
2023-12-11T17:08:26.874Z,32.17
2023-12-11T17:11:34.555Z,31.30
2023-12-11T17:14:37.059Z,30.70
2023-12-11T17:17:58.840Z,30.85
2023-12-11T17:21:03.677Z,30.15
2023-12-11T17:24:07.821Z,30.50
2023-12-11T17:27:10.582Z,45.50
2023-12-11T17:33:16.606Z,30.33
2023-12-11T17:36:20.029Z,34.00
2023-12-11T17:39:24.172Z,32.55
2023-12-11T17:42:28.109Z,34.35
2023-12-11T17:48:34.003Z,31.58
2023-12-11T17:51:36.794Z,34.22
2023-12-11T17:54:40.025Z,34.55
2023-12-11T17:57:42.743Z,35.10
2023-12-11T18:03:49.548Z,33.38
2023-12-11T18:06:52.771Z,35.75
2023-12-11T18:09:55.692Z,36.10
2023-12-11T18:12:58.584Z,35.55
2023-12-11T18:16:01.621Z,37.25
2023-12-11T18:19:04.649Z,37.15
2023-12-11T18:22:08.079Z,35.70
2023-12-11T18:28:16.510Z,35.08
2023-12-11T18:31:19.629Z,36.95
2023-12-11T18:34:23.059Z,35.97
2023-12-11T18:37:26.772Z,35.83
2023-12-11T18:40:29.915Z,38.65
2023-12-11T18:43:33.025Z,38.95
2023-12-11T18:46:36.200Z,38.25
2023-12-11T18:49:46.064Z,36.97
2023-12-11T18:52:49.731Z,38.50
2023-12-11T18:59:04.971Z,50.67
2023-12-11T19:02:09.191Z,38.63
2023-12-11T19:05:12.437Z,37.65
2023-12-11T19:08:15.479Z,34.92
2023-12-11T19:11:20.470Z,35.58
2023-12-11T19:14:24.045Z,35.97
2023-12-11T19:17:47.168Z,34.45
2023-12-11T19:20:50.076Z,35.20
2023-12-11T19:23:53.015Z,34.90
2023-12-11T19:26:55.959Z,35.42
2023-12-11T19:29:58.893Z,36.45
2023-12-11T19:33:03.174Z,37.58
2023-12-11T19:36:07.453Z,34.45
2023-12-11T19:39:11.069Z,35.80
2023-12-11T19:42:14.164Z,36.55
2023-12-11T19:45:17.679Z,36.83
2023-12-11T19:48:20.851Z,36.95
2023-12-11T19:51:48.126Z,36.45
2023-12-11T19:55:10.287Z,40.30
2023-12-11T19:58:13.169Z,36.63
2023-12-11T20:01:26.517Z,35.60
2023-12-11T20:07:32.802Z,46.13
2023-12-11T20:10:36.216Z,37.35
2023-12-11T20:13:40.174Z,32.90
2023-12-11T20:16:43.848Z,36.30
2023-12-11T20:19:46.774Z,34.13
2023-12-11T20:22:52.563Z,33.25
2023-12-11T20:26:01.483Z,35.08
2023-12-11T20:29:04.974Z,35.35
2023-12-11T20:32:07.595Z,35.20
2023-12-11T20:35:10.842Z,34.13
2023-12-11T20:38:13.530Z,34.08
2023-12-11T20:41:25.052Z,33.47
2023-12-11T20:44:27.738Z,35.42
2023-12-11T20:47:31.216Z,36.10
2023-12-11T20:50:34.105Z,36.85
2023-12-11T20:53:39.048Z,36.92
2023-12-11T20:56:41.745Z,34.85
2023-12-11T20:59:45.162Z,35.38
2023-12-11T21:02:48.131Z,35.72
2023-12-11T21:08:56.097Z,33.35
2023-12-11T21:11:59.354Z,32.67
2023-12-11T21:15:03.942Z,33.23
2023-12-11T21:18:07.657Z,33.15
2023-12-11T21:21:16.246Z,31.55
2023-12-11T21:24:19.541Z,32.97
2023-12-11T21:27:22.267Z,36.83
2023-12-11T21:33:29.382Z,33.75
2023-12-11T21:36:32.944Z,33.42
2023-12-11T21:39:35.592Z,31.15
2023-12-11T21:42:38.889Z,31.98
2023-12-11T21:45:41.559Z,30.65
2023-12-11T21:48:48.163Z,31.90
2023-12-11T21:51:51.498Z,31.87
2023-12-11T21:54:54.790Z,32.15
2023-12-11T21:57:57.374Z,30.73
2023-12-11T22:01:00.670Z,33.05
2023-12-11T22:04:03.974Z,35.35
2023-12-11T22:07:07.005Z,32.30
2023-12-11T22:10:10.056Z,34.60
2023-12-11T22:13:12.984Z,33.88
2023-12-11T22:16:16.495Z,33.13
2023-12-11T22:19:19.749Z,32.20
2023-12-11T22:22:22.724Z,34.97
2023-12-11T22:25:25.571Z,34.45
2023-12-11T22:28:28.636Z,34.88
2023-12-11T22:31:31.772Z,35.83
2023-12-11T22:34:35.232Z,32.53
2023-12-11T22:40:42.725Z,31.37
2023-12-11T22:43:45.555Z,33.88
2023-12-11T22:46:48.520Z,34.80
2023-12-11T22:49:51.400Z,34.30
2023-12-11T22:52:54.475Z,34.00
2023-12-11T22:55:57.413Z,36.15
2023-12-11T22:59:00.328Z,35.03
2023-12-11T23:02:04.458Z,35.55
2023-12-11T23:05:07.962Z,32.75
2023-12-11T23:08:10.885Z,35.55
2023-12-11T23:11:13.854Z,33.67
2023-12-11T23:14:16.754Z,33.63
2023-12-11T23:17:19.589Z,33.30
2023-12-11T23:20:22.441Z,35.80
2023-12-11T23:23:25.497Z,34.55
2023-12-11T23:26:28.348Z,33.05
2023-12-11T23:29:31.199Z,33.97
2023-12-11T23:32:34.028Z,33.65
2023-12-11T23:35:37.042Z,35.28
2023-12-11T23:38:40.403Z,33.95
2023-12-11T23:41:44.756Z,33.42
2023-12-11T23:44:47.685Z,35.65
2023-12-11T23:47:50.620Z,38.15
2023-12-11T23:50:53.494Z,36.83
2023-12-11T23:53:56.620Z,35.33
2023-12-11T23:56:59.448Z,34.75
